createdAt,value
2022-11-27T00:03:48.523Z,2.20
2022-11-27T00:07:50.319Z,2.40
2022-11-27T00:11:52.098Z,2.33
2022-11-27T00:15:57.475Z,2.17
2022-11-27T00:19:59.191Z,2.17
2022-11-27T00:24:03.903Z,2.15
2022-11-27T00:28:07.555Z,2.13
2022-11-27T00:32:09.454Z,2.00
2022-11-27T00:36:12.714Z,2.40
2022-11-27T00:40:15.584Z,2.25
2022-11-27T00:44:18.504Z,2.35
2022-11-27T00:48:20.208Z,1.92
2022-11-27T00:52:21.880Z,2.00
2022-11-27T00:56:26.702Z,2.25
2022-11-27T01:00:28.388Z,2.38
2022-11-27T01:04:30.442Z,2.47
2022-11-27T01:08:32.895Z,2.20
2022-11-27T01:12:34.602Z,1.77
2022-11-27T01:16:42.585Z,1.90
2022-11-27T01:20:44.896Z,1.90
2022-11-27T01:24:46.692Z,2.40
2022-11-27T01:28:52.188Z,2.05
2022-11-27T01:32:53.828Z,2.35
2022-11-27T01:36:55.510Z,2.40
2022-11-27T01:41:02.654Z,1.83
2022-11-27T01:45:04.675Z,2.60
2022-11-27T01:49:18.551Z,2.72
2022-11-27T01:53:20.395Z,2.42
2022-11-27T01:57:30.773Z,2.20
2022-11-27T02:01:32.482Z,2.38
2022-11-27T02:05:34.334Z,2.28
2022-11-27T02:09:36.239Z,2.30
2022-11-27T02:13:58.499Z,1.88
2022-11-27T02:18:09.247Z,2.28
2022-11-27T02:22:19.916Z,2.42
2022-11-27T02:26:59.981Z,1.98
2022-11-27T02:31:13.932Z,2.33
2022-11-27T02:35:26.892Z,2.90
2022-11-27T02:39:46.963Z,2.88
2022-11-27T02:43:51.562Z,1.70
2022-11-27T02:47:56.179Z,2.70
2022-11-27T02:52:01.293Z,2.08
2022-11-27T02:56:06.301Z,2.38
2022-11-27T03:00:09.514Z,1.80
2022-11-27T03:04:17.576Z,2.53
2022-11-27T03:08:32.823Z,2.33
2022-11-27T03:12:34.640Z,2.42
2022-11-27T03:16:51.243Z,2.08
2022-11-27T03:21:04.240Z,2.23
2022-11-27T03:25:06.192Z,2.60
2022-11-27T03:29:15.090Z,3.42
2022-11-27T03:33:18.341Z,3.40
2022-11-27T03:37:21.065Z,3.10
2022-11-27T03:41:41.735Z,3.60
2022-11-27T03:45:59.853Z,3.15
2022-11-27T03:50:17.769Z,3.05
2022-11-27T03:54:26.575Z,2.90
2022-11-27T03:58:34.851Z,2.90
2022-11-27T04:02:51.879Z,3.22
2022-11-27T04:06:53.667Z,3.88
2022-11-27T04:10:55.462Z,4.20
2022-11-27T04:14:57.392Z,3.42
2022-11-27T04:18:59.592Z,5.95
2022-11-27T04:23:01.340Z,4.75
2022-11-27T04:27:03.127Z,4.25
2022-11-27T04:31:05.345Z,5.20
2022-11-27T04:35:07.876Z,4.72
2022-11-27T04:39:09.660Z,4.47
2022-11-27T04:43:11.718Z,4.13
2022-11-27T04:47:13.528Z,4.40
2022-11-27T04:51:15.226Z,3.60
2022-11-27T04:55:17.277Z,3.30
2022-11-27T04:59:19.116Z,2.67
2022-11-27T05:03:20.989Z,2.60
2022-11-27T05:07:23.004Z,2.50
2022-11-27T05:11:24.964Z,2.35
2022-11-27T05:15:26.772Z,3.33
2022-11-27T05:19:30.408Z,2.85
2022-11-27T05:23:32.348Z,2.50
2022-11-27T05:27:34.047Z,2.55
2022-11-27T05:31:36.692Z,2.50
2022-11-27T05:35:38.521Z,2.72
2022-11-27T05:39:40.526Z,2.97
2022-11-27T05:43:42.499Z,2.97
2022-11-27T05:47:44.239Z,2.90
2022-11-27T05:51:50.989Z,2.75
2022-11-27T05:55:53.663Z,2.63
2022-11-27T05:59:55.459Z,2.38
2022-11-27T06:03:57.386Z,2.83
2022-11-27T06:07:59.170Z,2.85
2022-11-27T06:12:01.127Z,2.72
2022-11-27T06:16:07.591Z,3.10
2022-11-27T06:20:09.721Z,2.97
2022-11-27T06:24:11.397Z,2.83
2022-11-27T06:28:13.054Z,2.65
2022-11-27T06:32:14.766Z,3.20
2022-11-27T06:36:18.385Z,4.50
2022-11-27T06:40:20.068Z,4.32
2022-11-27T06:44:21.732Z,4.38
2022-11-27T06:48:23.566Z,4.80
2022-11-27T06:52:25.375Z,5.70
2022-11-27T06:56:29.013Z,4.50
2022-11-27T07:00:31.056Z,4.15
2022-11-27T07:04:32.713Z,5.10
2022-11-27T07:08:35.511Z,4.50
2022-11-27T07:12:37.399Z,3.92
2022-11-27T07:16:39.244Z,4.25
2022-11-27T07:20:41.000Z,3.88
2022-11-27T07:24:42.874Z,3.88
2022-11-27T07:28:48.466Z,3.20
2022-11-27T07:32:50.193Z,4.13
2022-11-27T07:36:52.735Z,4.30
2022-11-27T07:40:54.408Z,4.00
2022-11-27T07:44:56.175Z,5.75
2022-11-27T07:48:58.219Z,3.97
2022-11-27T07:52:59.999Z,4.60
2022-11-27T07:57:02.480Z,3.85
2022-11-27T08:01:10.195Z,4.32
2022-11-27T08:05:13.178Z,5.03
2022-11-27T08:09:15.319Z,5.55
2022-11-27T08:13:17.050Z,5.20
2022-11-27T08:17:19.449Z,5.55
2022-11-27T08:21:21.701Z,6.85
2022-11-27T08:25:23.387Z,4.18
2022-11-27T08:29:31.147Z,4.57
2022-11-27T08:33:36.596Z,3.50
2022-11-27T08:37:38.357Z,4.00
2022-11-27T08:41:40.102Z,5.00
2022-11-27T08:45:41.888Z,4.18
2022-11-27T08:49:46.271Z,3.70
2022-11-27T08:53:48.173Z,3.80
2022-11-27T08:57:51.262Z,2.83
2022-11-27T09:01:52.963Z,3.83
2022-11-27T09:05:54.669Z,4.95
2022-11-27T09:09:56.374Z,3.80
2022-11-27T09:14:02.315Z,4.72
2022-11-27T09:18:04.129Z,4.03
2022-11-27T09:22:05.900Z,3.72
2022-11-27T09:26:13.235Z,4.07
2022-11-27T09:30:15.060Z,3.75
2022-11-27T09:34:16.798Z,3.20
2022-11-27T09:38:19.083Z,2.80
2022-11-27T09:42:50.727Z,3.45
2022-11-27T09:46:54.371Z,2.83
2022-11-27T09:50:56.542Z,2.72
2022-11-27T09:55:09.785Z,2.70
2022-11-27T09:59:17.856Z,4.10
2022-11-27T10:03:26.811Z,3.78
2022-11-27T10:07:34.677Z,3.30
2022-11-27T10:11:42.221Z,4.13
2022-11-27T10:16:02.266Z,3.60
2022-11-27T10:20:46.880Z,4.10
2022-11-27T10:25:16.905Z,4.53
2022-11-27T10:29:43.286Z,4.90
2022-11-27T10:33:57.387Z,4.18
2022-11-27T10:38:17.253Z,5.00
2022-11-27T10:42:24.973Z,4.45
2022-11-27T10:46:36.193Z,4.80
2022-11-27T10:50:39.286Z,6.10
2022-11-27T10:54:42.952Z,5.50
2022-11-27T10:59:00.625Z,4.57
2022-11-27T11:07:24.413Z,4.25
2022-11-27T11:11:27.132Z,3.88
2022-11-27T11:15:28.803Z,3.80
2022-11-27T11:19:31.799Z,4.03
2022-11-27T11:23:38.830Z,4.60
2022-11-27T11:31:45.123Z,3.55
2022-11-27T11:35:55.456Z,4.30
2022-11-27T11:40:04.014Z,3.85
2022-11-27T11:44:05.876Z,4.95
2022-11-27T11:48:25.845Z,5.07
2022-11-27T11:52:49.597Z,4.72
2022-11-27T11:56:52.699Z,5.38
2022-11-27T12:01:26.425Z,4.03
2022-11-27T12:05:41.434Z,5.35
2022-11-27T12:10:06.211Z,3.65
2022-11-27T12:14:19.894Z,3.63
2022-11-27T12:18:39.552Z,5.30
2022-11-27T12:23:00.531Z,4.80
2022-11-27T12:27:12.730Z,4.57
2022-11-27T12:31:40.289Z,3.75
2022-11-27T12:35:51.067Z,4.35
2022-11-27T12:40:08.575Z,5.38
2022-11-27T12:44:48.546Z,5.90
2022-11-27T12:48:56.066Z,4.95
2022-11-27T12:53:15.407Z,6.45
2022-11-27T12:57:33.874Z,5.93
2022-11-27T13:02:01.693Z,5.38
2022-11-27T13:06:12.440Z,4.72
2022-11-27T13:10:33.459Z,5.22
2022-11-27T13:14:38.775Z,5.40
2022-11-27T13:18:47.107Z,6.90
2022-11-27T13:22:50.964Z,6.25
2022-11-27T13:27:10.909Z,5.95
2022-11-27T13:31:26.006Z,5.00
2022-11-27T13:35:29.447Z,5.97
2022-11-27T13:39:35.502Z,4.75
2022-11-27T13:43:37.166Z,4.45
2022-11-27T13:47:43.759Z,5.65
2022-11-27T13:51:45.513Z,5.78
2022-11-27T13:55:56.681Z,4.82
2022-11-27T14:00:03.041Z,6.03
2022-11-27T14:04:14.546Z,6.05
2022-11-27T14:08:29.979Z,6.20
2022-11-27T14:12:33.395Z,4.95
2022-11-27T14:16:36.954Z,5.50
2022-11-27T14:20:47.806Z,5.82
2022-11-27T14:24:55.917Z,7.07
2022-11-27T14:28:59.933Z,6.30
2022-11-27T14:33:05.944Z,5.57
2022-11-27T14:37:19.512Z,7.85
2022-11-27T14:41:25.614Z,8.77
2022-11-27T14:45:27.307Z,7.38
2022-11-27T14:49:31.036Z,7.28
2022-11-27T14:53:32.839Z,6.50
2022-11-27T14:57:35.427Z,6.57
2022-11-27T15:01:37.491Z,6.95
2022-11-27T15:05:39.545Z,7.75
2022-11-27T15:09:49.055Z,10.63
2022-11-27T15:13:56.148Z,9.63
2022-11-27T15:18:00.632Z,7.75
2022-11-27T15:22:03.230Z,8.27
2022-11-27T15:26:15.057Z,5.82
2022-11-27T15:30:19.032Z,6.15
2022-11-27T15:34:22.809Z,6.60
2022-11-27T15:38:24.470Z,8.80
2022-11-27T15:42:27.474Z,5.93
2022-11-27T15:46:34.508Z,5.50
2022-11-27T15:54:37.741Z,4.30
2022-11-27T15:58:39.463Z,6.22
2022-11-27T16:02:41.285Z,9.25
2022-11-27T16:06:43.064Z,8.57
2022-11-27T16:10:44.775Z,8.73
2022-11-27T16:14:46.464Z,5.88
2022-11-27T16:18:48.480Z,7.95
2022-11-27T16:22:50.243Z,9.70
2022-11-27T16:26:52.178Z,9.25
2022-11-27T16:30:59.393Z,8.55
2022-11-27T16:35:01.422Z,7.25
2022-11-27T16:39:04.597Z,8.18
2022-11-27T16:43:06.337Z,9.52
2022-11-27T16:47:08.050Z,10.20
2022-11-27T16:51:18.767Z,7.32
2022-11-27T16:55:20.974Z,5.50
2022-11-27T16:59:22.714Z,4.53
2022-11-27T17:03:25.144Z,6.30
2022-11-27T17:07:27.166Z,5.88
2022-11-27T17:11:33.560Z,5.30
2022-11-27T17:15:40.555Z,6.43
2022-11-27T17:19:43.375Z,5.07
2022-11-27T17:23:46.895Z,5.32
2022-11-27T17:27:49.436Z,6.78
2022-11-27T17:31:51.737Z,6.18
2022-11-27T17:35:53.471Z,6.47
2022-11-27T17:39:55.303Z,8.90
2022-11-27T17:43:57.464Z,8.98
2022-11-27T17:48:00.191Z,9.70
2022-11-27T17:52:06.365Z,7.65
2022-11-27T17:56:11.293Z,11.32
2022-11-27T18:00:13.348Z,16.85
2022-11-27T18:04:19.227Z,20.02
2022-11-27T18:08:20.917Z,14.23
2022-11-27T18:12:23.861Z,15.32
2022-11-27T18:16:29.672Z,10.20
2022-11-27T18:20:31.403Z,10.50
2022-11-27T18:24:35.633Z,18.05
2022-11-27T18:28:37.374Z,18.60
2022-11-27T18:32:39.321Z,12.98
2022-11-27T18:36:41.041Z,8.40
2022-11-27T18:40:45.617Z,6.15
2022-11-27T18:44:47.350Z,5.88
2022-11-27T18:48:49.937Z,6.65
2022-11-27T18:52:51.899Z,4.93
2022-11-27T18:56:53.736Z,4.10
2022-11-27T19:00:57.489Z,3.65
2022-11-27T19:04:59.638Z,3.17
2022-11-27T19:09:01.792Z,5.57
2022-11-27T19:13:03.790Z,4.50
2022-11-27T19:17:05.494Z,4.40
2022-11-27T19:21:10.110Z,3.70
2022-11-27T19:25:11.877Z,6.28
2022-11-27T19:29:14.743Z,8.90
2022-11-27T19:33:16.513Z,6.75
2022-11-27T19:37:33.560Z,8.52
2022-11-27T19:41:36.437Z,6.10
2022-11-27T19:45:38.363Z,6.88
2022-11-27T19:49:40.226Z,3.10
2022-11-27T19:53:42.748Z,3.00
2022-11-27T19:57:44.434Z,2.47
2022-11-27T20:01:46.233Z,2.35
2022-11-27T20:05:48.023Z,2.80
2022-11-27T20:09:49.765Z,3.90
2022-11-27T20:13:52.636Z,3.42
2022-11-27T20:17:55.473Z,3.28
2022-11-27T20:21:57.483Z,3.20
2022-11-27T20:25:59.209Z,2.90
2022-11-27T20:30:00.920Z,3.72
2022-11-27T20:34:04.979Z,3.08
2022-11-27T20:38:07.842Z,2.85
2022-11-27T20:42:09.608Z,2.45
2022-11-27T20:46:12.505Z,2.55
2022-11-27T20:50:14.237Z,2.60
2022-11-27T20:54:16.456Z,2.83
2022-11-27T20:58:18.184Z,2.65
2022-11-27T21:02:19.924Z,2.75
2022-11-27T21:06:24.681Z,4.20
2022-11-27T21:10:26.670Z,4.65
2022-11-27T21:14:28.437Z,5.30
2022-11-27T21:18:30.147Z,5.38
2022-11-27T21:22:31.909Z,4.82
2022-11-27T21:26:35.268Z,3.25
2022-11-27T21:30:38.143Z,5.20
2022-11-27T21:34:40.715Z,5.72
2022-11-27T21:38:43.051Z,6.03
2022-11-27T21:42:45.007Z,4.90
2022-11-27T21:46:47.776Z,4.18
2022-11-27T21:50:50.044Z,5.30
2022-11-27T21:54:53.632Z,5.10
2022-11-27T21:58:56.086Z,6.10
2022-11-27T22:02:57.791Z,4.32
2022-11-27T22:06:59.466Z,3.25
2022-11-27T22:11:01.984Z,3.85
2022-11-27T22:15:04.445Z,3.53
2022-11-27T22:19:06.578Z,2.60
2022-11-27T22:23:08.465Z,2.50
2022-11-27T22:27:10.222Z,2.13
2022-11-27T22:31:20.776Z,2.65
2022-11-27T22:35:24.932Z,3.00
2022-11-27T22:39:27.041Z,2.42
2022-11-27T22:43:28.786Z,2.33
2022-11-27T22:47:30.575Z,2.30
2022-11-27T22:51:35.571Z,4.05
2022-11-27T22:55:37.323Z,3.33
2022-11-27T22:59:39.114Z,3.47
2022-11-27T23:03:42.649Z,2.80
2022-11-27T23:07:44.713Z,3.95
2022-11-27T23:11:47.249Z,3.17
2022-11-27T23:15:48.975Z,2.33
2022-11-27T23:19:50.660Z,2.22
2022-11-27T23:23:52.968Z,2.75
2022-11-27T23:27:54.653Z,2.33
2022-11-27T23:31:56.389Z,2.60
2022-11-27T23:36:01.568Z,3.55
2022-11-27T23:40:04.137Z,3.05
2022-11-27T23:44:06.053Z,3.33
2022-11-27T23:48:07.747Z,3.25
2022-11-27T23:52:14.307Z,2.83
2022-11-27T23:56:29.517Z,3.55
